sensor_id;sensor_type;location;lat;lon;timestamp;P1;P2;P0
49686;PMS5003;36064;38.180;-122.272;2022-09-13T00:00:00;15.19;15.8;
49686;PMS5003;36064;38.180;-122.272;2022-09-13T00:05:00;15.42;14.21;
49686;PMS5003;36064;38.180;-122.272;2022-09-13T00:10:00;16.6;14.4;
49686;PMS5003;36064;38.180;-122.272;2022-09-13T00:15:01;19.4;16.8;
49686;PMS5003;36064;38.180;-122.272;2022-09-13T00:20:01;17.8;16.2;
49686;PMS5003;36064;38.180;-122.272;2022-09-13T00:25:00;15.2;13.4;
49686;PMS5003;36064;38.180;-122.272;2022-09-13T00:30:00;16.0;15.0;
49686;PMS5003;36064;38.180;-122.272;2022-09-13T00:35:00;15.0;14.8;
49686;PMS5003;36064;38.180;-122.272;2022-09-13T00:40:01;15.0;10.6;
49686;PMS5003;36064;38.180;-122.272;2022-09-13T00:45:01;13.6;10.8;
49686;PMS5003;36064;38.180;-122.272;2022-09-13T00:50:02;15.2;14.0;
49686;PMS5003;36064;38.180;-122.272;2022-09-13T00:55:01;14.0;13.2;
49686;PMS5003;36064;38.180;-122.272;2022-09-13T01:00:01;10.8;10.4;
49686;PMS5003;36064;38.180;-122.272;2022-09-13T01:05:01;13.59;12.37;
49686;PMS5003;36064;38.180;-122.272;2022-09-13T01:10:02;16.0;15.2;
49686;PMS5003;36064;38.180;-122.272;2022-09-13T01:15:00;12.8;12.6;
49686;PMS5003;36064;38.180;-122.272;2022-09-13T01:20:02;15.4;13.8;
49686;PMS5003;36064;38.180;-122.272;2022-09-13T01:30:04;15.4;14.8;
49686;PMS5003;36064;38.180;-122.272;2022-09-13T01:35:04;18.2;16.4;
49686;PMS5003;36064;38.180;-122.272;2022-09-13T01:40:03;15.2;13.0;
49686;PMS5003;36064;38.180;-122.272;2022-09-13T01:45:03;14.0;12.2;
49686;PMS5003;36064;38.180;-122.272;2022-09-13T01:50:06;14.0;11.6;
49686;PMS5003;36064;38.180;-122.272;2022-09-13T01:55:02;15.0;14.0;
49686;PMS5003;36064;38.180;-122.272;2022-09-13T02:00:03;13.4;13.0;
49686;PMS5003;36064;38.180;-122.272;2022-09-13T02:05:01;12.99;12.99;
49686;PMS5003;36064;38.180;-122.272;2022-09-13T02:10:02;15.2;14.4;
49686;PMS5003;36064;38.180;-122.272;2022-09-13T02:15:02;17.2;16.2;
49686;PMS5003;36064;38.180;-122.272;2022-09-13T02:20:01;15.4;13.2;
49686;PMS5003;36064;38.180;-122.272;2022-09-13T02:25:02;16.61;14.6;
49686;PMS5003;36064;38.180;-122.272;2022-09-13T02:30:01;13.8;13.8;
49686;PMS5003;36064;38.180;-122.272;2022-09-13T02:35:02;16.8;16.8;
49686;PMS5003;36064;38.180;-122.272;2022-09-13T02:40:03;12.8;12.2;
49686;PMS5003;36064;38.180;-122.272;2022-09-13T02:45:00;13.0;11.2;
49686;PMS5003;36064;38.180;-122.272;2022-09-13T02:50:05;15.4;13.4;
49686;PMS5003;36064;38.180;-122.272;2022-09-13T02:55:03;14.0;12.4;
49686;PMS5003;36064;38.180;-122.272;2022-09-13T03:00:00;19.0;16.6;
49686;PMS5003;36064;38.180;-122.272;2022-09-13T03:05:00;15.6;15.2;
49686;PMS5003;36064;38.180;-122.272;2022-09-13T03:10:01;13.2;11.4;
49686;PMS5003;36064;38.180;-122.272;2022-09-13T03:15:03;15.6;14.6;
49686;PMS5003;36064;38.180;-122.272;2022-09-13T03:20:03;15.4;13.8;
49686;PMS5003;36064;38.180;-122.272;2022-09-13T03:25:03;13.2;12.0;
49686;PMS5003;36064;38.180;-122.272;2022-09-13T03:30:02;11.6;11.2;
49686;PMS5003;36064;38.180;-122.272;2022-09-13T03:35:03;10.6;9.6;
49686;PMS5003;36064;38.180;-122.272;2022-09-13T03:40:02;12.2;11.6;
49686;PMS5003;36064;38.180;-122.272;2022-09-13T03:45:00;16.2;14.6;
49686;PMS5003;36064;38.180;-122.272;2022-09-13T03:50:01;12.4;11.4;
49686;PMS5003;36064;38.180;-122.272;2022-09-13T03:55:00;12.21;11.8;
49686;PMS5003;36064;38.180;-122.272;2022-09-13T04:00:00;10.98;10.19;
49686;PMS5003;36064;38.180;-122.272;2022-09-13T04:05:00;10.79;9.99;
49686;PMS5003;36064;38.180;-122.272;2022-09-13T04:10:00;12.4;12.0;
49686;PMS5003;36064;38.180;-122.272;2022-09-13T04:15:00;10.0;9.6;
49686;PMS5003;36064;38.180;-122.272;2022-09-13T04:20:01;15.4;13.2;
49686;PMS5003;36064;38.180;-122.272;2022-09-13T04:25:00;13.01;11.63;
49686;PMS5003;36064;38.180;-122.272;2022-09-13T04:30:01;13.02;10.82;
49686;PMS5003;36064;38.180;-122.272;2022-09-13T04:35:00;11.23;10.21;
49686;PMS5003;36064;38.180;-122.272;2022-09-13T04:40:01;13.4;12.2;
49686;PMS5003;36064;38.180;-122.272;2022-09-13T04:45:00;16.6;14.8;
49686;PMS5003;36064;38.180;-122.272;2022-09-13T04:50:00;12.0;11.0;
49686;PMS5003;36064;38.180;-122.272;2022-09-13T04:55:00;10.6;9.6;
49686;PMS5003;36064;38.180;-122.272;2022-09-13T05:00:00;12.0;12.0;
49686;PMS5003;36064;38.180;-122.272;2022-09-13T05:05:00;15.61;13.99;
49686;PMS5003;36064;38.180;-122.272;2022-09-13T05:10:00;10.0;10.0;
49686;PMS5003;36064;38.180;-122.272;2022-09-13T05:15:00;11.4;10.2;
49686;PMS5003;36064;38.180;-122.272;2022-09-13T05:20:00;11.8;11.0;
49686;PMS5003;36064;38.180;-122.272;2022-09-13T05:25:00;13.0;12.4;
49686;PMS5003;36064;38.180;-122.272;2022-09-13T05:30:00;12.8;11.2;
49686;PMS5003;36064;38.180;-122.272;2022-09-13T05:35:00;15.0;13.4;
49686;PMS5003;36064;38.180;-122.272;2022-09-13T05:40:01;13.37;11.79;
49686;PMS5003;36064;38.180;-122.272;2022-09-13T05:45:00;12.2;11.8;
49686;PMS5003;36064;38.180;-122.272;2022-09-13T05:50:00;12.2;10.4;
49686;PMS5003;36064;38.180;-122.272;2022-09-13T05:55:00;10.2;9.8;
49686;PMS5003;36064;38.180;-122.272;2022-09-13T06:00:00;10.2;10.0;
49686;PMS5003;36064;38.180;-122.272;2022-09-13T06:05:00;11.0;10.6;
49686;PMS5003;36064;38.180;-122.272;2022-09-13T06:10:00;16.8;15.19;
49686;PMS5003;36064;38.180;-122.272;2022-09-13T06:15:00;14.4;13.0;
49686;PMS5003;36064;38.180;-122.272;2022-09-13T06:20:01;13.6;12.8;
49686;PMS5003;36064;38.180;-122.272;2022-09-13T06:25:00;11.2;11.6;
49686;PMS5003;36064;38.180;-122.272;2022-09-13T06:30:00;11.39;10.79;
49686;PMS5003;36064;38.180;-122.272;2022-09-13T06:35:00;10.79;9.4;
49686;PMS5003;36064;38.180;-122.272;2022-09-13T06:40:01;11.6;11.2;
49686;PMS5003;36064;38.180;-122.272;2022-09-13T06:45:00;15.21;13.42;
49686;PMS5003;36064;38.180;-122.272;2022-09-13T06:50:00;15.81;11.6;
49686;PMS5003;36064;38.180;-122.272;2022-09-13T06:55:00;14.0;10.8;
49686;PMS5003;36064;38.180;-122.272;2022-09-13T07:00:00;15.03;14.23;
49686;PMS5003;36064;38.180;-122.272;2022-09-13T07:05:01;13.8;13.2;
49686;PMS5003;36064;38.180;-122.272;2022-09-13T07:10:01;11.39;12.0;
49686;PMS5003;36064;38.180;-122.272;2022-09-13T07:15:00;12.19;11.0;
49686;PMS5003;36064;38.180;-122.272;2022-09-13T07:20:01;15.0;12.4;
49686;PMS5003;36064;38.180;-122.272;2022-09-13T07:25:01;12.0;11.8;
49686;PMS5003;36064;38.180;-122.272;2022-09-13T07:30:00;15.0;13.0;
49686;PMS5003;36064;38.180;-122.272;2022-09-13T07:35:01;15.6;13.2;
49686;PMS5003;36064;38.180;-122.272;2022-09-13T07:40:01;14.0;13.2;
49686;PMS5003;36064;38.180;-122.272;2022-09-13T07:45:00;17.8;15.79;
49686;PMS5003;36064;38.180;-122.272;2022-09-13T07:50:00;12.79;14.2;
49686;PMS5003;36064;38.180;-122.272;2022-09-13T07:55:00;14.39;12.4;
49686;PMS5003;36064;38.180;-122.272;2022-09-13T08:00:00;10.4;11.18;
49686;PMS5003;36064;38.180;-122.272;2022-09-13T08:05:00;11.6;10.59;
49686;PMS5003;36064;38.180;-122.272;2022-09-13T08:10:00;10.6;10.59;
49686;PMS5003;36064;38.180;-122.272;2022-09-13T08:15:00;11.0;10.0;
49686;PMS5003;36064;38.180;-122.272;2022-09-13T08:20:01;14.37;12.96;
49686;PMS5003;36064;38.180;-122.272;2022-09-13T08:25:00;14.38;13.39;
49686;PMS5003;36064;38.180;-122.272;2022-09-13T08:30:00;12.8;11.8;
49686;PMS5003;36064;38.180;-122.272;2022-09-13T08:35:00;13.8;13.6;
49686;PMS5003;36064;38.180;-122.272;2022-09-13T08:40:01;9.6;8.4;
49686;PMS5003;36064;38.180;-122.272;2022-09-13T08:45:00;14.23;11.2;
49686;PMS5003;36064;38.180;-122.272;2022-09-13T08:50:04;12.02;12.02;
49686;PMS5003;36064;38.180;-122.272;2022-09-13T08:55:02;13.02;11.42;
49686;PMS5003;36064;38.180;-122.272;2022-09-13T09:00:03;9.2;9.2;
49686;PMS5003;36064;38.180;-122.272;2022-09-13T09:05:02;9.4;9.4;
49686;PMS5003;36064;38.180;-122.272;2022-09-13T09:10:01;12.4;11.6;
49686;PMS5003;36064;38.180;-122.272;2022-09-13T09:15:02;10.0;9.6;
49686;PMS5003;36064;38.180;-122.272;2022-09-13T09:20:03;10.4;10.0;
49686;PMS5003;36064;38.180;-122.272;2022-09-13T09:25:00;10.4;8.8;
49686;PMS5003;36064;38.180;-122.272;2022-09-13T09:30:00;11.0;10.2;
49686;PMS5003;36064;38.180;-122.272;2022-09-13T09:35:04;14.2;12.2;
49686;PMS5003;36064;38.180;-122.272;2022-09-13T09:40:01;15.6;12.0;
49686;PMS5003;36064;38.180;-122.272;2022-09-13T09:45:02;12.6;12.2;
49686;PMS5003;36064;38.180;-122.272;2022-09-13T09:50:03;12.01;8.8;
49686;PMS5003;36064;38.180;-122.272;2022-09-13T09:55:03;11.2;10.2;
49686;PMS5003;36064;38.180;-122.272;2022-09-13T10:00:07;11.61;9.6;
49686;PMS5003;36064;38.180;-122.272;2022-09-13T10:05:00;10.98;9.59;
49686;PMS5003;36064;38.180;-122.272;2022-09-13T10:10:02;17.8;15.4;
49686;PMS5003;36064;38.180;-122.272;2022-09-13T10:15:03;11.81;10.81;
49686;PMS5003;36064;38.180;-122.272;2022-09-13T10:20:02;14.2;10.21;
49686;PMS5003;36064;38.180;-122.272;2022-09-13T10:30:01;12.0;10.81;
49686;PMS5003;36064;38.180;-122.272;2022-09-13T10:35:02;13.42;12.82;
49686;PMS5003;36064;38.180;-122.272;2022-09-13T10:40:02;13.2;10.2;
49686;PMS5003;36064;38.180;-122.272;2022-09-13T10:45:01;9.6;9.0;
49686;PMS5003;36064;38.180;-122.272;2022-09-13T11:00:01;10.59;8.81;
49686;PMS5003;36064;38.180;-122.272;2022-09-13T11:05:04;13.38;10.6;
49686;PMS5003;36064;38.180;-122.272;2022-09-13T11:10:02;12.0;9.6;
49686;PMS5003;36064;38.180;-122.272;2022-09-13T11:15:02;13.2;11.4;
49686;PMS5003;36064;38.180;-122.272;2022-09-13T11:20:03;11.37;10.77;
49686;PMS5003;36064;38.180;-122.272;2022-09-13T11:30:08;11.0;9.8;
49686;PMS5003;36064;38.180;-122.272;2022-09-13T11:35:06;8.4;8.0;
49686;PMS5003;36064;38.180;-122.272;2022-09-13T11:40:19;10.6;9.2;
49686;PMS5003;36064;38.180;-122.272;2022-09-13T11:45:06;12.2;11.6;
49686;PMS5003;36064;38.180;-122.272;2022-09-13T11:55:02;10.39;10.0;
49686;PMS5003;36064;38.180;-122.272;2022-09-13T12:00:02;10.59;8.61;
49686;PMS5003;36064;38.180;-122.272;2022-09-13T12:05:02;12.4;8.61;
49686;PMS5003;36064;38.180;-122.272;2022-09-13T12:10:02;10.6;9.4;
49686;PMS5003;36064;38.180;-122.272;2022-09-13T12:15:02;11.02;10.63;
49686;PMS5003;36064;38.180;-122.272;2022-09-13T12:20:00;11.59;9.61;
49686;PMS5003;36064;38.180;-122.272;2022-09-13T12:25:02;10.2;9.2;
49686;PMS5003;36064;38.180;-122.272;2022-09-13T12:30:03;11.2;8.8;
49686;PMS5003;36064;38.180;-122.272;2022-09-13T12:35:01;10.2;10.0;
49686;PMS5003;36064;38.180;-122.272;2022-09-13T12:40:05;10.0;9.6;
49686;PMS5003;36064;38.180;-122.272;2022-09-13T12:50:05;15.8;14.2;
49686;PMS5003;36064;38.180;-122.272;2022-09-13T13:00:08;11.8;11.0;
49686;PMS5003;36064;38.180;-122.272;2022-09-13T13:05:02;14.6;13.8;
49686;PMS5003;36064;38.180;-122.272;2022-09-13T13:10:00;10.2;9.8;
49686;PMS5003;36064;38.180;-122.272;2022-09-13T13:15:01;13.6;13.0;
49686;PMS5003;36064;38.180;-122.272;2022-09-13T13:45:05;9.6;9.2;
49686;PMS5003;36064;38.180;-122.272;2022-09-13T13:50:11;11.6;10.8;
49686;PMS5003;36064;38.180;-122.272;2022-09-13T13:55:02;9.6;9.0;
49686;PMS5003;36064;38.180;-122.272;2022-09-13T14:00:04;9.8;9.2;
49686;PMS5003;36064;38.180;-122.272;2022-09-13T14:05:08;9.2;8.8;
49686;PMS5003;36064;38.180;-122.272;2022-09-13T14:10:02;12.2;11.8;
49686;PMS5003;36064;38.180;-122.272;2022-09-13T14:15:03;10.2;8.6;
49686;PMS5003;36064;38.180;-122.272;2022-09-13T14:20:02;11.0;9.0;
49686;PMS5003;36064;38.180;-122.272;2022-09-13T14:30:01;7.6;7.6;
49686;PMS5003;36064;38.180;-122.272;2022-09-13T14:35:01;7.0;6.8;
49686;PMS5003;36064;38.180;-122.272;2022-09-13T14:40:05;8.21;8.21;
49686;PMS5003;36064;38.180;-122.272;2022-09-13T14:45:00;8.8;8.8;
49686;PMS5003;36064;38.180;-122.272;2022-09-13T14:50:02;10.78;9.59;
49686;PMS5003;36064;38.180;-122.272;2022-09-13T14:55:01;7.4;7.0;
49686;PMS5003;36064;38.180;-122.272;2022-09-13T15:00:02;8.8;8.4;
49686;PMS5003;36064;38.180;-122.272;2022-09-13T15:05:00;8.0;6.81;
49686;PMS5003;36064;38.180;-122.272;2022-09-13T15:10:05;7.2;6.4;
49686;PMS5003;36064;38.180;-122.272;2022-09-13T15:20:02;10.2;9.0;
49686;PMS5003;36064;38.180;-122.272;2022-09-13T15:25:00;7.8;8.0;
49686;PMS5003;36064;38.180;-122.272;2022-09-13T15:30:01;8.4;6.6;
49686;PMS5003;36064;38.180;-122.272;2022-09-13T15:35:00;7.8;7.4;
49686;PMS5003;36064;38.180;-122.272;2022-09-13T15:40:04;8.0;8.0;
49686;PMS5003;36064;38.180;-122.272;2022-09-13T15:45:00;8.6;8.6;
49686;PMS5003;36064;38.180;-122.272;2022-09-13T15:50:00;8.8;8.8;
49686;PMS5003;36064;38.180;-122.272;2022-09-13T15:55:00;7.6;7.6;
49686;PMS5003;36064;38.180;-122.272;2022-09-13T16:00:00;8.2;8.2;
49686;PMS5003;36064;38.180;-122.272;2022-09-13T16:05:00;6.6;6.0;
49686;PMS5003;36064;38.180;-122.272;2022-09-13T16:10:00;6.8;8.0;
49686;PMS5003;36064;38.180;-122.272;2022-09-13T16:15:00;7.6;8.8;
49686;PMS5003;36064;38.180;-122.272;2022-09-13T16:20:01;6.8;7.6;
49686;PMS5003;36064;38.180;-122.272;2022-09-13T16:25:00;6.4;5.6;
49686;PMS5003;36064;38.180;-122.272;2022-09-13T16:30:00;7.0;5.8;
49686;PMS5003;36064;38.180;-122.272;2022-09-13T16:35:01;7.4;6.4;
49686;PMS5003;36064;38.180;-122.272;2022-09-13T16:40:01;7.4;7.4;
49686;PMS5003;36064;38.180;-122.272;2022-09-13T16:45:00;7.2;6.8;
49686;PMS5003;36064;38.180;-122.272;2022-09-13T16:50:00;6.8;6.8;
49686;PMS5003;36064;38.180;-122.272;2022-09-13T16:55:01;11.0;9.8;
49686;PMS5003;36064;38.180;-122.272;2022-09-13T17:00:01;6.8;6.2;
49686;PMS5003;36064;38.180;-122.272;2022-09-13T17:05:00;10.8;9.0;
49686;PMS5003;36064;38.180;-122.272;2022-09-13T17:10:00;7.8;7.0;
49686;PMS5003;36064;38.180;-122.272;2022-09-13T17:15:00;8.2;7.6;
49686;PMS5003;36064;38.180;-122.272;2022-09-13T17:20:01;6.8;6.6;
49686;PMS5003;36064;38.180;-122.272;2022-09-13T17:25:00;7.2;6.8;
49686;PMS5003;36064;38.180;-122.272;2022-09-13T17:30:00;6.2;5.8;
49686;PMS5003;36064;38.180;-122.272;2022-09-13T17:35:00;4.4;4.4;
49686;PMS5003;36064;38.180;-122.272;2022-09-13T17:40:01;4.0;4.0;
49686;PMS5003;36064;38.180;-122.272;2022-09-13T17:45:00;4.2;3.8;
49686;PMS5003;36064;38.180;-122.272;2022-09-13T17:50:00;3.6;3.4;
49686;PMS5003;36064;38.180;-122.272;2022-09-13T17:55:00;6.21;5.21;
49686;PMS5003;36064;38.180;-122.272;2022-09-13T18:00:00;6.4;5.8;
49686;PMS5003;36064;38.180;-122.272;2022-09-13T18:05:00;4.8;4.0;
49686;PMS5003;36064;38.180;-122.272;2022-09-13T18:10:00;5.2;5.0;
49686;PMS5003;36064;38.180;-122.272;2022-09-13T18:15:00;5.4;4.4;
49686;PMS5003;36064;38.180;-122.272;2022-09-13T18:20:01;4.8;4.8;
49686;PMS5003;36064;38.180;-122.272;2022-09-13T18:25:00;3.2;3.2;
49686;PMS5003;36064;38.180;-122.272;2022-09-13T18:30:00;3.6;3.6;
49686;PMS5003;36064;38.180;-122.272;2022-09-13T18:35:00;4.2;4.2;
49686;PMS5003;36064;38.180;-122.272;2022-09-13T18:40:01;5.2;3.8;
49686;PMS5003;36064;38.180;-122.272;2022-09-13T18:45:00;4.4;4.0;
49686;PMS5003;36064;38.180;-122.272;2022-09-13T18:50:02;4.0;3.6;
49686;PMS5003;36064;38.180;-122.272;2022-09-13T18:55:00;3.8;3.4;
49686;PMS5003;36064;38.180;-122.272;2022-09-13T19:00:00;2.8;2.6;
49686;PMS5003;36064;38.180;-122.272;2022-09-13T19:05:00;5.2;4.0;
49686;PMS5003;36064;38.180;-122.272;2022-09-13T19:10:00;4.2;4.2;
49686;PMS5003;36064;38.180;-122.272;2022-09-13T19:15:02;4.2;4.4;
49686;PMS5003;36064;38.180;-122.272;2022-09-13T19:20:01;5.0;3.8;
49686;PMS5003;36064;38.180;-122.272;2022-09-13T19:25:06;3.42;3.21;
49686;PMS5003;36064;38.180;-122.272;2022-09-13T19:30:00;2.6;2.6;
49686;PMS5003;36064;38.180;-122.272;2022-09-13T19:35:00;3.99;3.99;
49686;PMS5003;36064;38.180;-122.272;2022-09-13T19:40:01;3.0;3.0;
49686;PMS5003;36064;38.180;-122.272;2022-09-13T19:45:01;4.0;3.6;
49686;PMS5003;36064;38.180;-122.272;2022-09-13T19:50:00;4.4;4.0;
49686;PMS5003;36064;38.180;-122.272;2022-09-13T19:55:00;3.0;2.8;
49686;PMS5003;36064;38.180;-122.272;2022-09-13T20:00:00;1.8;1.8;
49686;PMS5003;36064;38.180;-122.272;2022-09-13T20:05:00;2.0;1.8;
49686;PMS5003;36064;38.180;-122.272;2022-09-13T20:10:00;2.4;0.8;
49686;PMS5003;36064;38.180;-122.272;2022-09-13T20:15:00;2.0;1.4;
49686;PMS5003;36064;38.180;-122.272;2022-09-13T20:20:00;2.6;1.4;
49686;PMS5003;36064;38.180;-122.272;2022-09-13T20:25:02;2.4;2.4;
49686;PMS5003;36064;38.180;-122.272;2022-09-13T20:30:00;3.2;2.4;
49686;PMS5003;36064;38.180;-122.272;2022-09-13T20:35:00;3.2;1.8;
49686;PMS5003;36064;38.180;-122.272;2022-09-13T20:40:01;2.4;2.0;
49686;PMS5003;36064;38.180;-122.272;2022-09-13T20:45:00;3.4;3.2;
49686;PMS5003;36064;38.180;-122.272;2022-09-13T20:50:04;1.6;1.6;
49686;PMS5003;36064;38.180;-122.272;2022-09-13T20:55:00;1.6;1.6;
49686;PMS5003;36064;38.180;-122.272;2022-09-13T21:00:00;1.4;1.4;
49686;PMS5003;36064;38.180;-122.272;2022-09-13T21:05:00;2.6;2.6;
49686;PMS5003;36064;38.180;-122.272;2022-09-13T21:10:00;2.6;2.6;
49686;PMS5003;36064;38.180;-122.272;2022-09-13T21:15:00;1.0;1.0;
49686;PMS5003;36064;38.180;-122.272;2022-09-13T21:20:01;2.0;1.0;
49686;PMS5003;36064;38.180;-122.272;2022-09-13T21:25:00;1.8;1.2;
49686;PMS5003;36064;38.180;-122.272;2022-09-13T21:30:00;2.0;1.8;
49686;PMS5003;36064;38.180;-122.272;2022-09-13T21:35:00;2.0;1.8;
49686;PMS5003;36064;38.180;-122.272;2022-09-13T21:40:01;2.0;2.0;
49686;PMS5003;36064;38.180;-122.272;2022-09-13T21:45:00;2.0;1.4;
49686;PMS5003;36064;38.180;-122.272;2022-09-13T21:50:01;2.4;2.2;
49686;PMS5003;36064;38.180;-122.272;2022-09-13T21:55:00;2.0;2.0;
49686;PMS5003;36064;38.180;-122.272;2022-09-13T22:00:00;1.79;1.79;
49686;PMS5003;36064;38.180;-122.272;2022-09-13T22:05:00;1.4;1.4;
49686;PMS5003;36064;38.180;-122.272;2022-09-13T22:10:00;1.4;1.0;
49686;PMS5003;36064;38.180;-122.272;2022-09-13T22:15:00;2.4;1.6;
49686;PMS5003;36064;38.180;-122.272;2022-09-13T22:20:01;2.2;1.8;
49686;PMS5003;36064;38.180;-122.272;2022-09-13T22:25:01;2.6;1.6;
49686;PMS5003;36064;38.180;-122.272;2022-09-13T22:30:00;2.4;2.2;
49686;PMS5003;36064;38.180;-122.272;2022-09-13T22:35:00;4.6;3.4;
49686;PMS5003;36064;38.180;-122.272;2022-09-13T22:40:01;2.4;2.4;
49686;PMS5003;36064;38.180;-122.272;2022-09-13T22:45:00;2.2;2.0;
49686;PMS5003;36064;38.180;-122.272;2022-09-13T22:50:00;3.6;2.8;
49686;PMS5003;36064;38.180;-122.272;2022-09-13T22:55:01;2.2;2.0;
49686;PMS5003;36064;38.180;-122.272;2022-09-13T23:00:00;1.2;2.0;
49686;PMS5003;36064;38.180;-122.272;2022-09-13T23:05:00;2.0;1.8;
49686;PMS5003;36064;38.180;-122.272;2022-09-13T23:10:00;2.0;1.8;
49686;PMS5003;36064;38.180;-122.272;2022-09-13T23:15:00;2.0;1.6;
49686;PMS5003;36064;38.180;-122.272;2022-09-13T23:20:01;3.2;2.0;
49686;PMS5003;36064;38.180;-122.272;2022-09-13T23:25:00;2.19;1.8;
49686;PMS5003;36064;38.180;-122.272;2022-09-13T23:30:00;1.4;1.4;
49686;PMS5003;36064;38.180;-122.272;2022-09-13T23:35:00;1.8;1.2;
49686;PMS5003;36064;38.180;-122.272;2022-09-13T23:40:00;4.4;3.4;
49686;PMS5003;36064;38.180;-122.272;2022-09-13T23:45:00;3.0;2.2;
49686;PMS5003;36064;38.180;-122.272;2022-09-13T23:50:02;2.0;2.0;
49686;PMS5003;36064;38.180;-122.272;2022-09-13T23:55:00;2.8;2.8;
